createdAt,value
2022-11-22T00:00:35.967Z,7.50
2022-11-22T00:03:02.739Z,7.60
2022-11-22T00:05:29.555Z,7.50
2022-11-22T00:07:56.336Z,7.50
2022-11-22T00:10:23.096Z,7.50
2022-11-22T00:12:50.128Z,7.40
2022-11-22T00:15:17.105Z,7.40
2022-11-22T00:17:43.994Z,7.40
2022-11-22T00:20:11.878Z,7.30
2022-11-22T00:22:44.298Z,7.30
2022-11-22T00:25:12.394Z,7.30
2022-11-22T00:27:39.226Z,7.20
2022-11-22T00:30:06.804Z,7.20
2022-11-22T00:32:33.859Z,7.20
2022-11-22T00:35:00.840Z,7.20
2022-11-22T00:37:27.663Z,7.10
2022-11-22T00:39:54.543Z,7.10
2022-11-22T00:42:21.314Z,7.10
2022-11-22T00:44:48.054Z,7.00
2022-11-22T00:47:14.963Z,7.00
2022-11-22T00:49:41.721Z,7.00
2022-11-22T00:52:08.601Z,7.00
2022-11-22T00:54:35.505Z,7.00
2022-11-22T00:57:02.534Z,7.00
2022-11-22T00:59:29.790Z,7.00
2022-11-22T01:01:56.823Z,7.00
2022-11-22T01:04:23.894Z,7.00
2022-11-22T01:06:50.877Z,7.00
2022-11-22T01:09:20.947Z,7.00
2022-11-22T01:11:48.047Z,7.00
2022-11-22T01:14:15.665Z,6.90
2022-11-22T01:16:42.783Z,6.90
2022-11-22T01:19:09.804Z,6.90
2022-11-22T01:21:36.876Z,6.90
2022-11-22T01:24:04.060Z,7.00
2022-11-22T01:26:31.066Z,6.90
2022-11-22T01:28:58.021Z,6.90
2022-11-22T01:31:25.192Z,7.00
2022-11-22T01:33:52.272Z,6.90
2022-11-22T01:36:19.162Z,7.00
2022-11-22T01:38:46.255Z,6.90
2022-11-22T01:41:13.843Z,6.90
2022-11-22T01:43:40.830Z,6.90
2022-11-22T01:46:15.835Z,6.90
2022-11-22T01:48:59.952Z,6.90
2022-11-22T01:51:38.761Z,6.90
2022-11-22T01:54:10.059Z,6.90
2022-11-22T01:56:39.427Z,6.90
2022-11-22T01:59:11.587Z,6.90
2022-11-22T02:01:38.551Z,6.90
2022-11-22T02:04:09.475Z,6.80
2022-11-22T02:06:50.595Z,6.80
2022-11-22T02:09:17.698Z,6.80
2022-11-22T02:11:50.748Z,6.80
2022-11-22T02:14:21.885Z,6.80
2022-11-22T02:16:48.814Z,6.80
2022-11-22T02:19:26.303Z,6.80
2022-11-22T02:22:00.604Z,6.80
2022-11-22T02:24:36.599Z,6.80
2022-11-22T02:27:03.811Z,6.70
2022-11-22T02:29:32.426Z,6.70
2022-11-22T02:31:59.422Z,6.70
2022-11-22T02:34:26.162Z,6.70
2022-11-22T02:36:54.711Z,6.70
2022-11-22T02:39:27.136Z,6.70
2022-11-22T02:41:56.039Z,6.60
2022-11-22T02:44:23.297Z,6.60
2022-11-22T02:46:53.118Z,6.60
2022-11-22T02:49:23.095Z,6.60
2022-11-22T02:51:51.290Z,6.60
2022-11-22T02:54:23.795Z,6.60
2022-11-22T02:56:50.961Z,6.50
2022-11-22T02:59:17.814Z,6.50
2022-11-22T03:01:46.543Z,6.50
2022-11-22T03:04:24.443Z,6.50
2022-11-22T03:06:56.361Z,6.50
2022-11-22T03:09:24.256Z,6.40
2022-11-22T03:11:51.476Z,6.40
2022-11-22T03:14:18.241Z,6.40
2022-11-22T03:16:46.577Z,6.40
2022-11-22T03:19:14.057Z,6.40
2022-11-22T03:21:42.268Z,6.30
2022-11-22T03:24:10.138Z,6.30
2022-11-22T03:26:37.636Z,6.30
2022-11-22T03:29:04.925Z,6.30
2022-11-22T03:31:31.903Z,6.30
2022-11-22T03:33:58.710Z,6.20
2022-11-22T03:36:25.509Z,6.20
2022-11-22T03:38:52.293Z,6.20
2022-11-22T03:41:19.142Z,6.20
2022-11-22T03:43:45.846Z,6.20
2022-11-22T03:46:17.206Z,6.10
2022-11-22T03:48:44.236Z,6.10
2022-11-22T03:51:11.241Z,6.10
2022-11-22T03:53:38.897Z,6.00
2022-11-22T03:56:06.194Z,6.00
2022-11-22T03:58:33.432Z,6.00
2022-11-22T04:01:00.550Z,6.00
2022-11-22T04:03:27.772Z,6.00
2022-11-22T04:05:54.598Z,6.00
2022-11-22T04:08:21.533Z,6.00
2022-11-22T04:10:49.591Z,6.00
2022-11-22T04:13:16.645Z,5.90
2022-11-22T04:15:43.454Z,5.90
2022-11-22T04:18:14.178Z,5.90
2022-11-22T04:21:00.016Z,5.90
2022-11-22T04:23:33.466Z,5.90
2022-11-22T04:26:00.844Z,5.80
2022-11-22T04:28:47.001Z,5.80
2022-11-22T04:31:33.333Z,5.80
2022-11-22T04:34:00.278Z,5.70
2022-11-22T04:36:27.122Z,5.70
2022-11-22T04:38:54.007Z,5.70
2022-11-22T04:41:20.842Z,5.70
2022-11-22T04:44:06.078Z,5.60
2022-11-22T04:46:32.938Z,5.60
2022-11-22T04:48:59.726Z,5.60
2022-11-22T04:51:45.058Z,5.60
2022-11-22T04:54:11.769Z,5.50
2022-11-22T04:56:38.566Z,5.50
2022-11-22T04:59:05.438Z,5.50
2022-11-22T05:01:32.245Z,5.50
2022-11-22T05:03:59.044Z,5.40
2022-11-22T05:06:25.757Z,5.40
2022-11-22T05:08:52.445Z,5.40
2022-11-22T05:11:19.216Z,5.40
2022-11-22T05:13:46.115Z,5.40
2022-11-22T05:16:15.330Z,5.40
2022-11-22T05:18:42.890Z,5.40
2022-11-22T05:21:12.701Z,5.30
2022-11-22T05:23:55.463Z,5.40
2022-11-22T05:26:31.392Z,5.30
2022-11-22T05:28:58.787Z,5.30
2022-11-22T05:31:27.358Z,5.30
2022-11-22T05:33:56.067Z,5.30
2022-11-22T05:36:23.656Z,5.30
2022-11-22T05:38:51.313Z,5.30
2022-11-22T05:41:18.515Z,5.40
2022-11-22T05:43:45.475Z,5.40
2022-11-22T05:46:23.600Z,5.40
2022-11-22T05:48:51.913Z,5.50
2022-11-22T05:51:21.232Z,5.50
2022-11-22T05:53:48.627Z,5.50
2022-11-22T05:56:23.688Z,5.60
2022-11-22T05:58:51.592Z,5.60
2022-11-22T06:01:20.874Z,5.60
2022-11-22T06:03:48.515Z,5.60
2022-11-22T06:06:15.937Z,5.60
2022-11-22T06:08:48.534Z,5.60
2022-11-22T06:11:21.290Z,5.60
2022-11-22T06:13:50.386Z,5.60
2022-11-22T06:16:17.354Z,5.60
2022-11-22T06:18:44.196Z,5.60
2022-11-22T06:21:16.262Z,5.60
2022-11-22T06:23:43.110Z,5.70
2022-11-22T06:26:14.910Z,5.60
2022-11-22T06:28:42.152Z,5.60
2022-11-22T06:31:16.128Z,5.60
2022-11-22T06:33:43.716Z,5.60
2022-11-22T06:36:13.188Z,5.70
2022-11-22T06:38:41.426Z,5.60
2022-11-22T06:41:19.400Z,5.60
2022-11-22T06:43:49.402Z,5.70
2022-11-22T06:46:21.307Z,5.70
2022-11-22T06:48:49.102Z,5.70
2022-11-22T06:51:27.497Z,5.70
2022-11-22T06:53:58.120Z,5.70
2022-11-22T06:56:36.640Z,5.70
2022-11-22T06:59:05.450Z,5.80
2022-11-22T07:01:34.019Z,5.70
2022-11-22T07:04:01.999Z,5.70
2022-11-22T07:06:38.188Z,5.80
2022-11-22T07:09:10.217Z,5.70
2022-11-22T07:11:38.076Z,5.70
2022-11-22T07:14:08.804Z,5.60
2022-11-22T07:16:37.607Z,5.70
2022-11-22T07:19:05.194Z,5.70
2022-11-22T07:21:32.521Z,5.70
2022-11-22T07:23:59.318Z,5.70
2022-11-22T07:26:27.276Z,5.70
2022-11-22T07:28:54.303Z,5.70
2022-11-22T07:31:21.585Z,5.80
2022-11-22T07:33:48.778Z,5.80
2022-11-22T07:36:18.759Z,5.80
2022-11-22T07:38:47.779Z,5.80
2022-11-22T07:41:15.622Z,5.80
2022-11-22T07:43:42.812Z,5.90
2022-11-22T07:46:20.834Z,5.90
2022-11-22T07:48:49.638Z,5.90
2022-11-22T07:51:17.215Z,5.90
2022-11-22T07:53:44.196Z,5.90
2022-11-22T07:56:11.233Z,6.00
2022-11-22T07:58:38.251Z,6.00
2022-11-22T08:01:07.329Z,6.00
2022-11-22T08:03:34.513Z,6.00
2022-11-22T08:06:01.844Z,6.10
2022-11-22T08:08:28.870Z,6.10
2022-11-22T08:10:55.831Z,6.10
2022-11-22T08:13:22.870Z,6.20
2022-11-22T08:15:51.559Z,6.20
2022-11-22T08:18:22.436Z,6.20
2022-11-22T08:20:49.351Z,6.20
2022-11-22T08:23:16.218Z,6.20
2022-11-22T08:25:43.069Z,6.20
2022-11-22T08:28:09.942Z,6.30
2022-11-22T08:30:36.786Z,6.30
2022-11-22T08:33:03.616Z,6.40
2022-11-22T08:35:30.315Z,6.40
2022-11-22T08:37:57.735Z,6.40
2022-11-22T08:40:24.634Z,6.40
2022-11-22T08:42:54.432Z,6.40
2022-11-22T08:45:21.233Z,6.40
2022-11-22T08:47:49.083Z,6.40
2022-11-22T08:50:17.603Z,6.40
2022-11-22T08:52:44.339Z,6.50
2022-11-22T08:55:11.186Z,6.50
2022-11-22T08:57:37.969Z,6.50
2022-11-22T09:00:06.301Z,6.50
2022-11-22T09:02:33.081Z,6.50
2022-11-22T09:04:59.974Z,6.50
2022-11-22T09:10:15.703Z,6.50
2022-11-22T09:12:46.187Z,6.50
2022-11-22T09:15:13.677Z,6.50
2022-11-22T09:17:40.566Z,6.60
2022-11-22T09:20:08.428Z,6.60
2022-11-22T09:22:35.554Z,6.60
2022-11-22T09:25:02.653Z,6.60
2022-11-22T09:27:29.478Z,6.70
2022-11-22T09:29:56.392Z,6.70
2022-11-22T09:32:23.230Z,6.80
2022-11-22T09:34:50.037Z,6.80
2022-11-22T09:37:19.565Z,6.90
2022-11-22T09:39:49.417Z,6.90
2022-11-22T09:42:41.631Z,7.00
2022-11-22T09:45:35.226Z,7.00
2022-11-22T09:48:31.314Z,7.00
2022-11-22T09:51:12.424Z,7.00
2022-11-22T09:53:47.021Z,7.00
2022-11-22T09:56:16.971Z,7.00
2022-11-22T09:58:48.847Z,7.10
2022-11-22T10:01:22.484Z,7.10
2022-11-22T10:04:01.878Z,7.10
2022-11-22T10:06:42.703Z,7.10
2022-11-22T10:09:48.733Z,7.10
2022-11-22T10:12:54.639Z,7.10
2022-11-22T10:15:55.604Z,7.10
2022-11-22T10:18:31.594Z,7.20
2022-11-22T10:20:58.353Z,7.20
2022-11-22T10:23:27.082Z,7.20
2022-11-22T10:26:13.196Z,7.30
2022-11-22T10:28:51.484Z,7.20
2022-11-22T10:31:25.678Z,7.20
2022-11-22T10:34:01.499Z,7.30
2022-11-22T10:36:46.785Z,7.30
2022-11-22T10:39:19.499Z,7.30
2022-11-22T10:42:18.073Z,7.30
2022-11-22T10:45:03.827Z,7.40
2022-11-22T10:48:20.226Z,7.40
2022-11-22T10:50:54.201Z,7.40
2022-11-22T10:53:27.835Z,7.50
2022-11-22T10:56:06.034Z,7.50
2022-11-22T10:58:41.360Z,7.50
2022-11-22T11:01:37.283Z,7.50
2022-11-22T11:04:07.160Z,7.50
2022-11-22T11:07:11.160Z,7.60
2022-11-22T11:12:58.432Z,7.60
2022-11-22T11:15:37.677Z,7.60
2022-11-22T11:18:39.237Z,7.60
2022-11-22T11:21:07.718Z,7.70
2022-11-22T11:23:34.851Z,7.70
2022-11-22T11:26:33.970Z,7.70
2022-11-22T11:29:19.003Z,7.70
2022-11-22T11:31:47.889Z,7.70
2022-11-22T11:34:20.576Z,7.70
2022-11-22T11:36:47.761Z,7.70
2022-11-22T11:39:22.001Z,7.80
2022-11-22T11:41:49.168Z,7.70
2022-11-22T11:44:29.311Z,7.70
2022-11-22T11:46:56.421Z,7.70
2022-11-22T11:49:28.970Z,7.70
2022-11-22T11:51:59.450Z,7.80
2022-11-22T11:54:30.335Z,7.80
2022-11-22T11:57:03.416Z,7.70
2022-11-22T11:59:36.204Z,7.80
2022-11-22T12:02:13.704Z,7.80
2022-11-22T12:05:07.667Z,7.80
2022-11-22T12:07:34.474Z,7.90
2022-11-22T12:10:03.730Z,7.80
2022-11-22T12:12:49.580Z,7.80
2022-11-22T12:15:29.154Z,7.80
2022-11-22T12:18:24.926Z,7.80
2022-11-22T12:20:54.734Z,7.90
2022-11-22T12:23:26.704Z,7.80
2022-11-22T12:25:58.021Z,7.90
2022-11-22T12:28:27.763Z,8.00
2022-11-22T12:31:15.448Z,8.00
2022-11-22T12:33:47.483Z,8.10
2022-11-22T12:36:21.451Z,8.20
2022-11-22T12:38:50.746Z,8.30
2022-11-22T12:41:21.280Z,8.30
2022-11-22T12:44:03.356Z,8.30
2022-11-22T12:46:39.649Z,8.30
2022-11-22T12:49:37.323Z,8.30
2022-11-22T12:52:10.166Z,8.40
2022-11-22T12:55:11.242Z,8.40
2022-11-22T12:58:12.130Z,8.40
2022-11-22T13:00:57.340Z,8.60
2022-11-22T13:03:33.169Z,8.60
2022-11-22T13:06:03.486Z,8.60
2022-11-22T13:09:05.488Z,8.60
2022-11-22T13:11:38.241Z,8.60
2022-11-22T13:14:17.876Z,8.60
2022-11-22T13:16:50.812Z,8.50
2022-11-22T13:19:20.158Z,8.60
2022-11-22T13:22:28.473Z,8.60
2022-11-22T13:25:01.390Z,8.60
2022-11-22T13:27:46.124Z,8.60
2022-11-22T13:30:25.585Z,8.70
2022-11-22T13:32:55.132Z,8.80
2022-11-22T13:35:38.134Z,8.80
2022-11-22T13:38:09.742Z,8.80
2022-11-22T13:40:44.032Z,8.80
2022-11-22T13:43:17.920Z,8.80
2022-11-22T13:45:55.113Z,8.70
2022-11-22T13:48:40.368Z,8.70
2022-11-22T13:51:14.716Z,8.70
2022-11-22T13:53:43.997Z,8.70
2022-11-22T13:56:16.741Z,8.70
2022-11-22T13:58:59.176Z,8.70
2022-11-22T14:01:35.217Z,8.70
2022-11-22T14:04:17.470Z,8.80
2022-11-22T14:06:49.674Z,8.80
2022-11-22T14:09:38.447Z,8.70
2022-11-22T14:12:11.177Z,8.80
2022-11-22T14:15:08.786Z,8.80
2022-11-22T14:18:09.776Z,8.70
2022-11-22T14:21:00.255Z,8.80
2022-11-22T14:23:56.980Z,8.80
2022-11-22T14:26:50.981Z,8.80
2022-11-22T14:29:54.834Z,8.60
2022-11-22T14:32:26.981Z,8.60
2022-11-22T14:35:05.942Z,8.60
2022-11-22T14:37:32.750Z,8.60
2022-11-22T14:40:36.137Z,8.60
2022-11-22T14:43:32.549Z,8.60
2022-11-22T14:46:30.513Z,8.60
2022-11-22T14:49:09.502Z,8.60
2022-11-22T14:51:38.046Z,8.50
2022-11-22T14:54:19.345Z,8.50
2022-11-22T14:56:47.030Z,8.50
2022-11-22T14:59:16.872Z,8.50
2022-11-22T15:02:21.293Z,8.60
2022-11-22T15:09:19.631Z,8.60
2022-11-22T15:09:23.879Z,8.60
2022-11-22T15:11:07.810Z,8.60
2022-11-22T15:14:11.101Z,8.50
2022-11-22T15:57:27.312Z,8.30
2022-11-22T15:59:55.578Z,8.30
2022-11-22T16:02:25.551Z,8.30
2022-11-22T16:06:06.304Z,8.40
2022-11-22T16:07:48.789Z,8.40
2022-11-22T16:10:42.456Z,8.40
2022-11-22T16:13:27.180Z,8.30
2022-11-22T16:16:12.634Z,8.40
2022-11-22T16:18:41.394Z,8.30
2022-11-22T16:21:13.840Z,8.30
2022-11-22T16:23:42.241Z,8.30
2022-11-22T16:26:21.772Z,8.20
2022-11-22T16:28:51.286Z,8.20
2022-11-22T16:31:27.398Z,8.20
2022-11-22T16:33:55.414Z,8.20
2022-11-22T16:36:24.274Z,8.20
2022-11-22T16:38:51.628Z,8.20
2022-11-22T16:41:26.320Z,8.20
2022-11-22T16:44:00.602Z,8.20
2022-11-22T16:46:27.511Z,8.20
2022-11-22T16:48:55.962Z,8.20
2022-11-22T16:51:24.156Z,8.30
2022-11-22T16:53:53.161Z,8.30
2022-11-22T16:56:28.664Z,8.30
2022-11-22T16:58:57.322Z,8.30
2022-11-22T17:01:26.755Z,8.30
2022-11-22T17:03:56.088Z,8.30
2022-11-22T17:06:25.088Z,8.30
2022-11-22T17:08:54.431Z,8.30
2022-11-22T17:11:24.078Z,8.30
2022-11-22T17:13:51.059Z,8.30
2022-11-22T17:16:17.977Z,8.30
2022-11-22T17:18:45.829Z,8.30
2022-11-22T17:21:32.913Z,8.30
2022-11-22T17:24:03.738Z,8.30
2022-11-22T17:26:32.465Z,8.30
2022-11-22T17:28:59.275Z,8.30
2022-11-22T17:31:28.581Z,8.30
2022-11-22T17:33:57.809Z,8.30
2022-11-22T17:36:32.796Z,8.30
2022-11-22T17:39:01.313Z,8.30
2022-11-22T17:41:30.371Z,8.30
2022-11-22T17:43:57.605Z,8.30
2022-11-22T17:46:24.595Z,8.30
2022-11-22T17:48:52.958Z,8.30
2022-11-22T17:51:20.533Z,8.30
2022-11-22T17:53:47.454Z,8.30
2022-11-22T17:56:14.530Z,8.30
2022-11-22T17:58:41.651Z,8.30
2022-11-22T18:01:17.251Z,8.30
2022-11-22T18:03:44.482Z,8.30
2022-11-22T18:06:12.498Z,8.20
2022-11-22T18:08:46.723Z,8.20
2022-11-22T18:11:14.780Z,8.20
2022-11-22T18:13:41.864Z,8.10
2022-11-22T18:16:12.178Z,8.10
2022-11-22T18:21:29.120Z,8.10
2022-11-22T18:23:57.790Z,8.10
2022-11-22T18:26:39.432Z,8.10
2022-11-22T18:31:54.832Z,8.10
2022-11-22T18:34:22.823Z,8.10
2022-11-22T18:37:05.502Z,8.10
2022-11-22T18:39:38.742Z,8.10
2022-11-22T18:42:12.217Z,8.20
2022-11-22T18:44:39.210Z,8.20
2022-11-22T18:47:06.210Z,8.20
2022-11-22T18:49:33.417Z,8.20
2022-11-22T18:52:00.579Z,8.30
2022-11-22T18:54:27.408Z,8.30
2022-11-22T18:56:54.313Z,8.30
2022-11-22T18:59:21.184Z,8.40
2022-11-22T19:01:48.106Z,8.40
2022-11-22T19:04:15.939Z,8.40
2022-11-22T19:06:43.056Z,8.40
2022-11-22T19:09:10.145Z,8.50
2022-11-22T19:11:37.129Z,8.50
2022-11-22T19:14:04.072Z,8.50
2022-11-22T19:16:31.536Z,8.50
2022-11-22T19:18:59.212Z,8.50
2022-11-22T19:21:28.067Z,8.60
2022-11-22T19:23:56.299Z,8.60
2022-11-22T19:26:25.906Z,8.60
2022-11-22T19:28:55.652Z,8.70
2022-11-22T19:31:25.372Z,8.70
2022-11-22T19:33:52.365Z,8.70
2022-11-22T19:36:27.920Z,8.60
2022-11-22T19:38:59.051Z,8.60
2022-11-22T19:41:26.135Z,8.60
2022-11-22T19:43:53.105Z,8.50
2022-11-22T19:46:20.028Z,8.50
2022-11-22T19:48:54.636Z,8.40
2022-11-22T19:51:22.318Z,8.40
2022-11-22T19:53:53.338Z,8.50
2022-11-22T19:56:20.650Z,8.50
2022-11-22T19:58:52.276Z,8.40
2022-11-22T20:01:19.437Z,8.40
2022-11-22T20:03:46.418Z,8.40
2022-11-22T20:06:14.000Z,8.40
2022-11-22T20:08:41.342Z,8.40
2022-11-22T20:11:20.303Z,8.40
2022-11-22T20:13:48.861Z,8.40
2022-11-22T20:16:17.495Z,8.40
2022-11-22T20:18:44.279Z,8.50
2022-11-22T20:21:11.497Z,8.50
2022-11-22T20:23:39.219Z,8.50
2022-11-22T20:26:11.386Z,8.50
2022-11-22T20:28:39.677Z,8.50
2022-11-22T20:31:11.744Z,8.50
2022-11-22T20:33:41.151Z,8.50
2022-11-22T20:36:17.046Z,8.50
2022-11-22T20:38:44.886Z,8.50
2022-11-22T20:41:13.301Z,8.50
2022-11-22T20:43:40.349Z,8.50
2022-11-22T20:46:12.712Z,8.50
2022-11-22T20:48:40.746Z,8.50
2022-11-22T20:51:09.828Z,8.50
2022-11-22T20:53:37.192Z,8.50
2022-11-22T20:56:04.799Z,8.50
2022-11-22T20:58:32.179Z,8.50
2022-11-22T21:00:59.295Z,8.50
2022-11-22T21:03:27.398Z,8.50
2022-11-22T21:05:55.514Z,8.40
2022-11-22T21:08:23.281Z,8.50
2022-11-22T21:10:50.161Z,8.50
2022-11-22T21:13:17.478Z,8.50
2022-11-22T21:15:44.781Z,8.50
2022-11-22T21:18:27.345Z,8.60
2022-11-22T21:20:54.142Z,8.60
2022-11-22T21:23:20.973Z,8.60
2022-11-22T21:25:50.445Z,8.60
2022-11-22T21:28:17.339Z,8.60
2022-11-22T21:30:44.234Z,8.60
2022-11-22T21:33:11.011Z,8.70
2022-11-22T21:35:37.826Z,8.70
2022-11-22T21:38:04.627Z,8.70
2022-11-22T21:40:31.442Z,8.70
2022-11-22T21:42:58.317Z,8.70
2022-11-22T21:45:25.094Z,8.70
2022-11-22T21:47:51.858Z,8.70
2022-11-22T21:50:18.716Z,8.70
2022-11-22T21:52:45.526Z,8.80
2022-11-22T21:55:13.026Z,8.80
2022-11-22T21:57:39.809Z,8.80
2022-11-22T22:00:07.372Z,8.80
2022-11-22T22:02:34.116Z,8.90
2022-11-22T22:05:00.846Z,8.80
2022-11-22T22:07:51.471Z,8.90
2022-11-22T22:10:15.443Z,8.90
2022-11-22T22:12:42.279Z,8.90
2022-11-22T22:15:11.981Z,8.90
2022-11-22T22:17:38.795Z,8.90
2022-11-22T22:20:06.226Z,8.90
2022-11-22T22:22:36.877Z,8.90
2022-11-22T22:25:05.281Z,8.90
2022-11-22T22:27:33.258Z,8.90
2022-11-22T22:30:00.512Z,8.90
2022-11-22T22:32:27.919Z,8.90
2022-11-22T22:34:54.850Z,8.90
2022-11-22T22:37:21.888Z,9.00
2022-11-22T22:39:51.502Z,9.00
2022-11-22T22:42:19.593Z,9.00
2022-11-22T22:44:46.518Z,9.00
2022-11-22T22:47:13.903Z,9.10
2022-11-22T22:49:40.702Z,9.10
2022-11-22T22:52:07.475Z,9.10
2022-11-22T22:54:34.752Z,9.10
2022-11-22T22:57:03.383Z,9.10
2022-11-22T22:59:30.481Z,9.20
2022-11-22T23:01:57.629Z,9.20
2022-11-22T23:04:24.414Z,9.20
2022-11-22T23:06:51.197Z,9.20
2022-11-22T23:09:18.090Z,9.20
2022-11-22T23:12:03.552Z,9.20
2022-11-22T23:14:30.365Z,9.20
2022-11-22T23:16:58.319Z,9.20
2022-11-22T23:19:26.671Z,9.20
2022-11-22T23:21:53.901Z,9.20
2022-11-22T23:24:20.861Z,9.20
2022-11-22T23:26:47.625Z,9.20
2022-11-22T23:29:14.576Z,9.20
2022-11-22T23:31:41.335Z,9.20
2022-11-22T23:34:11.197Z,9.20
2022-11-22T23:36:40.951Z,9.20
2022-11-22T23:39:08.746Z,9.20
2022-11-22T23:41:35.858Z,9.20
2022-11-22T23:44:03.000Z,9.20
2022-11-22T23:46:29.972Z,9.30
2022-11-22T23:48:59.548Z,9.20
2022-11-22T23:51:28.100Z,9.20
2022-11-22T23:53:59.513Z,9.20
2022-11-22T23:56:27.524Z,9.30
2022-11-22T23:58:54.814Z,9.20
